createdAt,value
2018-09-09T00:03:20.380Z,100366.64
2018-09-09T00:07:24.360Z,100366.69
2018-09-09T00:11:27.946Z,100367.64
2018-09-09T00:15:32.854Z,100370.80
2018-09-09T00:19:36.609Z,100364.54
2018-09-09T00:23:40.134Z,100369.90
2018-09-09T00:27:43.772Z,100368.19
2018-09-09T00:31:47.456Z,100369.56
2018-09-09T00:35:52.019Z,100361.22
2018-09-09T00:39:55.794Z,100369.67
2018-09-09T00:43:59.488Z,100370.18
2018-09-09T00:48:03.176Z,100362.27
2018-09-09T00:52:15.256Z,100365.01
2018-09-09T00:56:18.818Z,100362.85
2018-09-09T01:00:27.807Z,100362.08
2018-09-09T01:04:31.472Z,100355.04
2018-09-09T01:08:36.181Z,100355.11
2018-09-09T01:12:39.811Z,100352.03
2018-09-09T01:16:43.293Z,100359.17
2018-09-09T01:20:46.945Z,100358.70
2018-09-09T01:24:52.654Z,100361.84
2018-09-09T01:28:56.346Z,100356.10
2018-09-09T01:32:59.883Z,100363.21
2018-09-09T01:37:03.745Z,100369.95
2018-09-09T01:41:07.613Z,100371.32
2018-09-09T01:45:11.179Z,100378.88
2018-09-09T01:49:14.690Z,100365.19
2018-09-09T01:53:18.235Z,100370.56
2018-09-09T01:57:22.034Z,100381.70
2018-09-09T02:01:25.675Z,100378.63
2018-09-09T02:05:29.203Z,100379.16
2018-09-09T02:09:32.946Z,100379.23
2018-09-09T02:13:36.586Z,100378.43
2018-09-09T02:17:40.338Z,100382.05
2018-09-09T02:21:43.885Z,100390.08
2018-09-09T02:25:47.456Z,100382.59
2018-09-09T02:29:51.182Z,100385.27
2018-09-09T02:33:54.797Z,100385.31
2018-09-09T02:37:58.653Z,100388.45
2018-09-09T02:42:02.298Z,100388.01
2018-09-09T02:46:06.089Z,100392.00
2018-09-09T02:50:09.650Z,100388.45
2018-09-09T02:54:15.342Z,100387.59
2018-09-09T02:58:19.016Z,100385.86
2018-09-09T03:02:22.560Z,100385.91
2018-09-09T03:06:26.225Z,100392.14
2018-09-09T03:10:29.831Z,100397.06
2018-09-09T03:14:33.950Z,100399.30
2018-09-09T03:18:37.726Z,100398.00
2018-09-09T03:22:41.421Z,100396.67
2018-09-09T03:26:45.953Z,100397.16
2018-09-09T03:30:49.975Z,100399.41
2018-09-09T03:34:53.755Z,100395.86
2018-09-09T03:38:57.693Z,100399.48
2018-09-09T03:43:03.740Z,100398.23
2018-09-09T03:47:07.283Z,100401.36
2018-09-09T03:51:12.306Z,100402.77
2018-09-09T03:55:15.952Z,100406.77
2018-09-09T03:59:20.075Z,100405.44
2018-09-09T04:03:23.712Z,100404.11
2018-09-09T04:07:27.708Z,100414.29
2018-09-09T04:11:31.474Z,100412.09
2018-09-09T04:15:36.149Z,100412.55
2018-09-09T04:19:39.666Z,100413.46
2018-09-09T04:23:43.376Z,100423.24
2018-09-09T04:27:46.915Z,100428.16
2018-09-09T04:31:50.512Z,100433.08
2018-09-09T04:35:54.579Z,100431.36
2018-09-09T04:39:58.266Z,100433.17
2018-09-09T04:44:03.107Z,100435.38
2018-09-09T04:48:06.768Z,100438.03
2018-09-09T04:52:10.736Z,100434.52
2018-09-09T04:56:14.450Z,100437.64
2018-09-09T05:00:18.137Z,100439.85
2018-09-09T05:04:21.946Z,100442.95
2018-09-09T05:08:25.606Z,100448.67
2018-09-09T05:12:29.523Z,100449.11
2018-09-09T05:16:33.094Z,100446.89
2018-09-09T05:20:36.962Z,100446.87
2018-09-09T05:24:40.524Z,100451.27
2018-09-09T05:28:44.494Z,100445.48
2018-09-09T05:32:48.154Z,100453.02
2018-09-09T05:36:53.161Z,100453.87
2018-09-09T05:40:56.943Z,100459.64
2018-09-09T05:45:01.355Z,100463.16
2018-09-09T05:49:05.441Z,100466.64
2018-09-09T05:53:09.043Z,100465.67
2018-09-09T05:57:12.806Z,100467.39
2018-09-09T06:01:17.412Z,100462.45
2018-09-09T06:05:20.956Z,100464.98
2018-09-09T06:09:24.760Z,100471.58
2018-09-09T06:13:28.248Z,100467.45
2018-09-09T06:17:32.330Z,100467.80
2018-09-09T06:21:36.135Z,100476.97
2018-09-09T06:25:39.866Z,100475.07
2018-09-09T06:29:43.619Z,100477.55
2018-09-09T06:33:47.638Z,100481.86
2018-09-09T06:37:51.445Z,100476.36
2018-09-09T06:41:55.065Z,100480.61
2018-09-09T06:45:58.684Z,100487.55
2018-09-09T06:50:02.398Z,100490.55
2018-09-09T06:54:06.463Z,100492.19
2018-09-09T06:58:10.220Z,100493.72
2018-09-09T07:02:13.890Z,100502.39
2018-09-09T07:06:17.554Z,100498.30
2018-09-09T07:10:21.334Z,100496.31
2018-09-09T07:14:25.248Z,100503.67
2018-09-09T07:18:28.773Z,100510.08
2018-09-09T07:22:32.376Z,100510.63
2018-09-09T07:26:36.076Z,100504.13
2018-09-09T07:30:39.781Z,100510.86
2018-09-09T07:34:43.451Z,100511.84
2018-09-09T07:38:47.111Z,100508.11
2018-09-09T07:42:50.641Z,100510.19
2018-09-09T07:46:54.270Z,100513.42
2018-09-09T07:50:57.974Z,100517.63
2018-09-09T07:55:01.603Z,100513.49
2018-09-09T07:59:05.203Z,100512.02
2018-09-09T08:03:08.894Z,100513.95
2018-09-09T08:07:12.765Z,100515.34
2018-09-09T08:11:16.374Z,100518.97
2018-09-09T08:15:21.495Z,100523.09
2018-09-09T08:19:25.983Z,100526.67
2018-09-09T08:23:30.079Z,100524.53
2018-09-09T08:27:34.253Z,100523.64
2018-09-09T08:31:37.910Z,100509.80
2018-09-09T08:35:42.638Z,100510.81
2018-09-09T08:39:46.181Z,100514.35
2018-09-09T08:43:49.817Z,100509.08
2018-09-09T08:47:53.359Z,100512.46
2018-09-09T08:51:57.204Z,100509.53
2018-09-09T08:56:01.107Z,100505.14
2018-09-09T09:00:04.810Z,100502.81
2018-09-09T09:04:08.397Z,100501.78
2018-09-09T09:08:12.067Z,100493.80
2018-09-09T09:12:16.259Z,100486.88
2018-09-09T09:16:20.036Z,100489.45
2018-09-09T09:20:23.624Z,100490.90
2018-09-09T09:24:27.282Z,100489.72
2018-09-09T09:28:30.834Z,100494.47
2018-09-09T09:32:34.514Z,100493.75
2018-09-09T09:36:38.280Z,100478.91
2018-09-09T09:40:41.798Z,100478.20
2018-09-09T09:44:45.777Z,100472.83
2018-09-09T09:48:49.720Z,100458.45
2018-09-09T09:52:53.330Z,100455.16
2018-09-09T09:56:56.950Z,100451.08
2018-09-09T10:01:01.940Z,100451.84
2018-09-09T10:05:05.500Z,100446.86
2018-09-09T10:09:09.135Z,100447.39
2018-09-09T10:13:12.797Z,100448.03
2018-09-09T10:17:16.386Z,100438.79
2018-09-09T10:21:19.979Z,100446.78
2018-09-09T10:25:23.863Z,100442.78
2018-09-09T10:29:27.451Z,100441.09
2018-09-09T10:33:31.094Z,100437.95
2018-09-09T10:37:34.786Z,100436.06
2018-09-09T10:41:38.833Z,100436.19
2018-09-09T10:45:42.752Z,100438.81
2018-09-09T10:49:46.323Z,100443.27
2018-09-09T10:53:49.926Z,100442.45
2018-09-09T10:57:53.750Z,100436.36
2018-09-09T11:01:57.332Z,100430.25
2018-09-09T11:06:01.646Z,100429.27
2018-09-09T11:10:05.266Z,100431.47
2018-09-09T11:14:08.834Z,100428.91
2018-09-09T11:18:12.706Z,100427.02
2018-09-09T11:22:16.409Z,100429.94
2018-09-09T11:26:21.057Z,100424.30
2018-09-09T11:30:24.753Z,100422.76
2018-09-09T11:34:28.432Z,100431.09
2018-09-09T11:38:32.070Z,100429.73
2018-09-09T11:42:35.784Z,100417.13
2018-09-09T11:46:39.359Z,100413.76
2018-09-09T11:50:42.827Z,100419.39
2018-09-09T11:54:46.549Z,100418.53
2018-09-09T11:58:50.252Z,100412.28
2018-09-09T12:02:53.880Z,100408.17
2018-09-09T12:06:57.745Z,100404.67
2018-09-09T12:11:01.694Z,100401.50
2018-09-09T12:15:06.844Z,100396.78
2018-09-09T12:19:10.328Z,100392.87
2018-09-09T12:23:34.144Z,100387.48
2018-09-09T12:27:37.937Z,100390.18
2018-09-09T12:31:41.625Z,100384.70
2018-09-09T12:35:45.391Z,100389.43
2018-09-09T12:39:49.149Z,100382.14
2018-09-09T12:43:58.174Z,100390.47
2018-09-09T12:48:07.010Z,100385.66
2018-09-09T12:52:10.855Z,100379.00
2018-09-09T12:56:15.956Z,100373.23
2018-09-09T13:00:19.695Z,100380.89
2018-09-09T13:04:23.694Z,100377.55
2018-09-09T13:08:27.305Z,100376.20
2018-09-09T13:13:34.204Z,100377.48
2018-09-09T13:17:37.859Z,100364.80
2018-09-09T13:21:41.536Z,100367.19
2018-09-09T13:25:45.261Z,100362.87
2018-09-09T13:29:48.779Z,100363.28
2018-09-09T13:33:52.502Z,100350.88
2018-09-09T13:37:56.428Z,100345.72
2018-09-09T13:42:00.363Z,100352.60
2018-09-09T13:46:03.965Z,100341.80
2018-09-09T13:50:07.532Z,100346.98
2018-09-09T13:54:11.155Z,100346.19
2018-09-09T13:58:14.999Z,100344.02
2018-09-09T14:02:18.570Z,100339.03
2018-09-09T14:06:22.314Z,100343.49
2018-09-09T14:10:25.904Z,100339.97
2018-09-09T14:14:29.709Z,100333.41
2018-09-09T14:18:33.347Z,100338.52
2018-09-09T14:22:38.239Z,100334.41
2018-09-09T14:26:41.810Z,100327.12
2018-09-09T14:30:45.636Z,100327.05
2018-09-09T14:34:49.345Z,100335.00
2018-09-09T14:38:53.077Z,100333.41
2018-09-09T14:42:57.868Z,100341.48
2018-09-09T14:47:01.906Z,100341.59
2018-09-09T14:51:05.448Z,100339.45
2018-09-09T14:55:09.210Z,100341.73
2018-09-09T14:59:13.259Z,100343.08
2018-09-09T15:03:16.973Z,100339.73
2018-09-09T15:07:20.576Z,100338.45
2018-09-09T15:11:24.232Z,100348.43
2018-09-09T15:15:27.976Z,100340.83
2018-09-09T15:19:31.564Z,100336.92
2018-09-09T15:23:35.415Z,100340.17
2018-09-09T15:27:39.118Z,100331.30
2018-09-09T15:31:42.715Z,100335.23
2018-09-09T15:35:46.332Z,100328.30
2018-09-09T15:39:50.128Z,100332.13
2018-09-09T15:43:53.899Z,100326.81
2018-09-09T15:47:57.527Z,100318.73
2018-09-09T15:52:01.460Z,100326.02
2018-09-09T15:56:05.054Z,100323.73
2018-09-09T16:00:08.954Z,100329.43
2018-09-09T16:04:12.673Z,100327.42
2018-09-09T16:08:16.406Z,100332.08
2018-09-09T16:12:19.999Z,100334.42
2018-09-09T16:16:24.959Z,100339.98
2018-09-09T16:20:28.772Z,100338.77
2018-09-09T16:24:32.429Z,100353.77
2018-09-09T16:28:36.002Z,100356.52
2018-09-09T16:32:39.779Z,100350.89
2018-09-09T16:36:44.497Z,100345.64
2018-09-09T16:40:48.637Z,100337.25
2018-09-09T16:44:53.217Z,100336.97
2018-09-09T16:48:56.946Z,100329.92
2018-09-09T16:53:00.774Z,100323.77
2018-09-09T16:57:04.637Z,100325.08
2018-09-09T17:02:37.257Z,100336.42
2018-09-09T17:06:40.842Z,100328.27
2018-09-09T17:10:44.437Z,100333.39
2018-09-09T17:14:47.987Z,100330.31
2018-09-09T17:18:52.756Z,100325.06
2018-09-09T17:27:48.337Z,100333.94
2018-09-09T17:32:16.872Z,100335.14
2018-09-09T17:36:40.925Z,100331.52
2018-09-09T17:45:37.798Z,100343.17
2018-09-09T18:41:01.759Z,100400.13
2018-09-09T18:54:11.163Z,100398.45
2018-09-09T18:59:00.872Z,100395.25
2018-09-09T19:03:34.567Z,100392.02
2018-09-09T19:07:49.334Z,100390.16
2018-09-09T19:12:36.467Z,100394.61
2018-09-09T19:21:58.795Z,100392.13
2018-09-09T20:20:26.275Z,100416.48
2018-09-09T20:24:29.808Z,100410.81
2018-09-09T20:28:35.374Z,100407.32
2018-09-09T20:32:39.956Z,100412.29
2018-09-09T20:36:43.858Z,100410.22
2018-09-09T20:40:47.558Z,100414.75
2018-09-09T20:44:51.222Z,100413.09
2018-09-09T20:48:55.331Z,100414.56
2018-09-09T20:52:58.923Z,100417.19
2018-09-09T20:57:02.883Z,100417.23
2018-09-09T21:01:06.725Z,100419.13
2018-09-09T21:05:10.373Z,100421.42
2018-09-09T21:09:14.395Z,100414.77
2018-09-09T21:13:18.108Z,100415.32
2018-09-09T21:17:21.678Z,100413.63
2018-09-09T21:21:25.445Z,100411.03
2018-09-09T21:25:29.073Z,100408.04
2018-09-09T21:29:32.740Z,100406.87
2018-09-09T21:33:36.644Z,100416.82
2018-09-09T21:37:40.233Z,100417.33
2018-09-09T21:41:43.687Z,100423.19
2018-09-09T21:45:47.239Z,100421.94
2018-09-09T21:49:50.941Z,100418.39
2018-09-09T21:53:54.674Z,100422.01
2018-09-09T21:57:58.110Z,100411.45
2018-09-09T22:02:07.494Z,100421.66
2018-09-09T22:06:10.983Z,100425.23
2018-09-09T22:10:14.744Z,100422.20
2018-09-09T22:14:18.286Z,100419.05
2018-09-09T22:18:21.885Z,100420.43
2018-09-09T22:22:25.331Z,100425.86
2018-09-09T22:26:28.904Z,100422.78
2018-09-09T22:30:32.491Z,100426.55
2018-09-09T22:34:36.136Z,100434.29
2018-09-09T22:38:39.702Z,100446.94
2018-09-09T22:42:43.643Z,100440.44
2018-09-09T22:46:47.109Z,100433.17
2018-09-09T22:50:50.829Z,100435.58
2018-09-09T22:54:54.467Z,100443.67
2018-09-09T22:58:58.270Z,100443.27
2018-09-09T23:03:01.878Z,100439.77
2018-09-09T23:07:05.489Z,100446.48
2018-09-09T23:11:09.125Z,100439.90
2018-09-09T23:15:12.929Z,100442.27
2018-09-09T23:19:16.562Z,100439.33
2018-09-09T23:23:20.239Z,100443.00
2018-09-09T23:27:23.817Z,100451.08
2018-09-09T23:31:27.389Z,100438.26
2018-09-09T23:35:31.077Z,100442.36
2018-09-09T23:39:34.672Z,100444.26
2018-09-09T23:43:38.252Z,100451.43
2018-09-09T23:47:41.891Z,100438.20
2018-09-09T23:51:45.478Z,100442.34
2018-09-09T23:55:49.015Z,100446.06
2018-09-09T23:59:52.565Z,100447.52
